sensor_id;sensor_type;location;lat;lon;timestamp;pressure;altitude;pressure_sealevel;temperature;humidity
59110;BME280;44895;47.438;18.978;2023-06-24T00:01:08;100196.97;;;19.14;100.00
59110;BME280;44895;47.438;18.978;2023-06-24T00:04:12;100212.94;;;19.08;100.00
59110;BME280;44895;47.438;18.978;2023-06-24T00:07:18;100207.66;;;19.15;100.00
59110;BME280;44895;47.438;18.978;2023-06-24T00:10:25;100198.22;;;19.16;100.00
59110;BME280;44895;47.438;18.978;2023-06-24T00:13:29;100202.44;;;19.26;100.00
59110;BME280;44895;47.438;18.978;2023-06-24T00:16:33;100198.72;;;19.06;100.00
59110;BME280;44895;47.438;18.978;2023-06-24T00:19:37;100197.47;;;18.91;100.00
59110;BME280;44895;47.438;18.978;2023-06-24T00:22:41;100198.72;;;19.06;100.00
59110;BME280;44895;47.438;18.978;2023-06-24T00:25:47;100192.97;;;19.11;100.00
59110;BME280;44895;47.438;18.978;2023-06-24T00:28:51;100191.94;;;19.03;100.00
59110;BME280;44895;47.438;18.978;2023-06-24T00:31:55;100187.94;;;19.01;100.00
59110;BME280;44895;47.438;18.978;2023-06-24T00:35:00;100191.41;;;18.85;100.00
59110;BME280;44895;47.438;18.978;2023-06-24T00:38:04;100190.84;;;18.92;100.00
59110;BME280;44895;47.438;18.978;2023-06-24T00:41:08;100191.41;;;18.98;100.00
59110;BME280;44895;47.438;18.978;2023-06-24T00:44:12;100191.06;;;18.99;100.00
59110;BME280;44895;47.438;18.978;2023-06-24T00:47:16;100183.25;;;19.01;100.00
59110;BME280;44895;47.438;18.978;2023-06-24T00:50:20;100177.53;;;18.94;100.00
59110;BME280;44895;47.438;18.978;2023-06-24T00:53:24;100166.06;;;18.92;100.00
59110;BME280;44895;47.438;18.978;2023-06-24T00:56:34;100167.44;;;18.86;100.00
59110;BME280;44895;47.438;18.978;2023-06-24T00:59:40;100173.53;;;18.79;100.00
59110;BME280;44895;47.438;18.978;2023-06-24T01:02:48;100167.78;;;18.84;100.00
59110;BME280;44895;47.438;18.978;2023-06-24T01:05:54;100147.16;;;18.90;100.00
59110;BME280;44895;47.438;18.978;2023-06-24T01:08:59;100144.16;;;18.83;100.00
59110;BME280;44895;47.438;18.978;2023-06-24T01:12:05;100140.53;;;18.67;100.00
59110;BME280;44895;47.438;18.978;2023-06-24T01:15:11;100139.81;;;18.82;100.00
59110;BME280;44895;47.438;18.978;2023-06-24T01:18:29;100137.31;;;18.77;100.00
59110;BME280;44895;47.438;18.978;2023-06-24T01:22:00;100123.34;;;18.70;100.00
59110;BME280;44895;47.438;18.978;2023-06-24T01:35:00;100110.41;;;18.70;100.00
59110;BME280;44895;47.438;18.978;2023-06-24T01:38:16;100085.41;;;18.63;100.00
59110;BME280;44895;47.438;18.978;2023-06-24T01:41:34;100105.38;;;18.60;100.00
59110;BME280;44895;47.438;18.978;2023-06-24T01:44:40;100092.66;;;18.55;100.00
59110;BME280;44895;47.438;18.978;2023-06-24T01:47:48;100094.63;;;18.55;100.00
59110;BME280;44895;47.438;18.978;2023-06-24T01:50:59;100098.75;;;18.61;100.00
59110;BME280;44895;47.438;18.978;2023-06-24T01:54:07;100081.47;;;18.48;100.00
59110;BME280;44895;47.438;18.978;2023-06-24T01:57:15;100087.38;;;18.63;100.00
59110;BME280;44895;47.438;18.978;2023-06-24T02:00:21;100086.38;;;18.55;100.00
59110;BME280;44895;47.438;18.978;2023-06-24T02:03:27;100074.56;;;18.54;100.00
59110;BME280;44895;47.438;18.978;2023-06-24T02:06:32;100071.25;;;18.61;100.00
59110;BME280;44895;47.438;18.978;2023-06-24T02:09:37;100066.38;;;18.42;100.00
59110;BME280;44895;47.438;18.978;2023-06-24T02:12:45;100073.09;;;18.57;100.00
59110;BME280;44895;47.438;18.978;2023-06-24T02:15:51;100091.28;;;18.62;100.00
59110;BME280;44895;47.438;18.978;2023-06-24T02:18:56;100091.41;;;18.53;100.00
59110;BME280;44895;47.438;18.978;2023-06-24T02:22:02;100090.88;;;18.47;100.00
59110;BME280;44895;47.438;18.978;2023-06-24T02:25:08;100092.47;;;18.48;100.00
59110;BME280;44895;47.438;18.978;2023-06-24T02:28:14;100093.38;;;18.52;100.00
59110;BME280;44895;47.438;18.978;2023-06-24T02:31:19;100094.09;;;18.37;100.00
59110;BME280;44895;47.438;18.978;2023-06-24T02:34:24;100099.91;;;18.35;100.00
59110;BME280;44895;47.438;18.978;2023-06-24T02:37:28;100111.72;;;18.48;100.00
59110;BME280;44895;47.438;18.978;2023-06-24T02:40:32;100106.91;;;18.33;100.00
59110;BME280;44895;47.438;18.978;2023-06-24T02:43:36;100110.91;;;18.35;100.00
59110;BME280;44895;47.438;18.978;2023-06-24T02:46:42;100115.38;;;18.40;100.00
59110;BME280;44895;47.438;18.978;2023-06-24T02:49:48;100107.50;;;18.26;100.00
59110;BME280;44895;47.438;18.978;2023-06-24T02:52:52;100111.97;;;18.31;100.00
59110;BME280;44895;47.438;18.978;2023-06-24T02:56:00;100112.44;;;18.20;100.00
59110;BME280;44895;47.438;18.978;2023-06-24T02:59:04;100116.53;;;18.26;100.00
59110;BME280;44895;47.438;18.978;2023-06-24T03:02:08;100124.56;;;18.19;100.00
59110;BME280;44895;47.438;18.978;2023-06-24T03:05:14;100136.94;;;18.25;100.00
59110;BME280;44895;47.438;18.978;2023-06-24T03:08:19;100134.53;;;18.12;100.00
59110;BME280;44895;47.438;18.978;2023-06-24T03:11:25;100140.72;;;18.21;100.00
59110;BME280;44895;47.438;18.978;2023-06-24T03:14:30;100134.19;;;18.13;100.00
59110;BME280;44895;47.438;18.978;2023-06-24T03:17:33;100123.97;;;18.14;100.00
59110;BME280;44895;47.438;18.978;2023-06-24T03:20:39;100134.66;;;18.03;100.00
59110;BME280;44895;47.438;18.978;2023-06-24T03:23:46;100127.31;;;18.07;100.00
59110;BME280;44895;47.438;18.978;2023-06-24T03:26:52;100132.69;;;18.03;100.00
59110;BME280;44895;47.438;18.978;2023-06-24T03:30:03;100140.34;;;18.10;100.00
59110;BME280;44895;47.438;18.978;2023-06-24T03:33:10;100133.72;;;17.99;100.00
59110;BME280;44895;47.438;18.978;2023-06-24T03:36:15;100126.97;;;18.08;100.00
59110;BME280;44895;47.438;18.978;2023-06-24T03:39:20;100135.66;;;17.98;100.00
59110;BME280;44895;47.438;18.978;2023-06-24T03:42:24;100143.69;;;18.03;100.00
59110;BME280;44895;47.438;18.978;2023-06-24T03:45:28;100144.72;;;18.11;100.00
59110;BME280;44895;47.438;18.978;2023-06-24T03:48:32;100171.97;;;18.04;100.00
59110;BME280;44895;47.438;18.978;2023-06-24T03:51:37;100187.75;;;18.07;100.00
59110;BME280;44895;47.438;18.978;2023-06-24T03:54:42;100191.44;;;18.11;100.00
59110;BME280;44895;47.438;18.978;2023-06-24T03:57:46;100189.16;;;18.13;100.00
59110;BME280;44895;47.438;18.978;2023-06-24T04:00:51;100197.16;;;18.18;100.00
59110;BME280;44895;47.438;18.978;2023-06-24T04:03:54;100207.03;;;18.19;100.00
59110;BME280;44895;47.438;18.978;2023-06-24T04:07:00;100211.38;;;18.20;100.00
59110;BME280;44895;47.438;18.978;2023-06-24T04:10:05;100202.41;;;18.11;100.00
59110;BME280;44895;47.438;18.978;2023-06-24T04:13:12;100215.94;;;18.29;100.00
59110;BME280;44895;47.438;18.978;2023-06-24T04:16:17;100210.94;;;18.31;100.00
59110;BME280;44895;47.438;18.978;2023-06-24T04:19:20;100205.88;;;18.33;100.00
59110;BME280;44895;47.438;18.978;2023-06-24T04:22:25;100202.22;;;18.53;100.00
59110;BME280;44895;47.438;18.978;2023-06-24T04:25:33;100205.53;;;18.59;100.00
59110;BME280;44895;47.438;18.978;2023-06-24T04:28:37;100209.09;;;18.60;100.00
59110;BME280;44895;47.438;18.978;2023-06-24T04:31:41;100203.13;;;18.70;100.00
59110;BME280;44895;47.438;18.978;2023-06-24T04:34:45;100206.06;;;18.77;100.00
59110;BME280;44895;47.438;18.978;2023-06-24T04:37:49;100207.78;;;18.82;100.00
59110;BME280;44895;47.438;18.978;2023-06-24T04:40:54;100210.91;;;18.80;100.00
59110;BME280;44895;47.438;18.978;2023-06-24T04:43:57;100212.28;;;18.86;100.00
59110;BME280;44895;47.438;18.978;2023-06-24T04:47:02;100206.28;;;18.84;100.00
59110;BME280;44895;47.438;18.978;2023-06-24T04:50:06;100201.25;;;18.86;100.00
59110;BME280;44895;47.438;18.978;2023-06-24T04:53:13;100202.66;;;18.80;100.00
59110;BME280;44895;47.438;18.978;2023-06-24T04:56:17;100220.44;;;18.95;100.00
59110;BME280;44895;47.438;18.978;2023-06-24T04:59:24;100228.06;;;19.14;100.00
59110;BME280;44895;47.438;18.978;2023-06-24T05:02:28;100215.97;;;19.19;100.00
59110;BME280;44895;47.438;18.978;2023-06-24T05:05:31;100211.09;;;19.40;100.00
59110;BME280;44895;47.438;18.978;2023-06-24T05:08:35;100217.53;;;19.61;100.00
59110;BME280;44895;47.438;18.978;2023-06-24T05:11:42;100220.16;;;19.41;100.00
59110;BME280;44895;47.438;18.978;2023-06-24T05:14:52;100216.19;;;19.54;100.00
59110;BME280;44895;47.438;18.978;2023-06-24T05:17:57;100219.31;;;20.77;100.00
59110;BME280;44895;47.438;18.978;2023-06-24T05:21:00;100219.88;;;22.04;100.00
59110;BME280;44895;47.438;18.978;2023-06-24T05:24:04;100208.03;;;29.12;84.47
59110;BME280;44895;47.438;18.978;2023-06-24T05:27:08;100192.44;;;30.28;60.15
59110;BME280;44895;47.438;18.978;2023-06-24T05:30:12;100199.38;;;31.97;53.51
59110;BME280;44895;47.438;18.978;2023-06-24T05:33:17;100203.41;;;31.96;48.85
59110;BME280;44895;47.438;18.978;2023-06-24T05:36:21;100207.50;;;32.87;48.63
59110;BME280;44895;47.438;18.978;2023-06-24T05:39:25;100205.09;;;32.72;47.83
59110;BME280;44895;47.438;18.978;2023-06-24T05:42:29;100217.63;;;32.38;47.81
59110;BME280;44895;47.438;18.978;2023-06-24T05:45:33;100219.56;;;32.08;46.75
59110;BME280;44895;47.438;18.978;2023-06-24T05:48:37;100216.09;;;32.50;47.64
59110;BME280;44895;47.438;18.978;2023-06-24T05:51:41;100215.94;;;31.38;47.57
59110;BME280;44895;47.438;18.978;2023-06-24T05:54:45;100223.66;;;30.94;48.65
59110;BME280;44895;47.438;18.978;2023-06-24T05:57:49;100212.19;;;31.98;49.99
59110;BME280;44895;47.438;18.978;2023-06-24T06:00:53;100230.53;;;32.02;49.22
59110;BME280;44895;47.438;18.978;2023-06-24T06:03:59;100240.78;;;30.55;50.61
59110;BME280;44895;47.438;18.978;2023-06-24T06:07:03;100230.69;;;31.79;48.49
59110;BME280;44895;47.438;18.978;2023-06-24T06:10:08;100235.09;;;34.72;43.33
59110;BME280;44895;47.438;18.978;2023-06-24T06:13:13;100235.41;;;34.52;43.55
59110;BME280;44895;47.438;18.978;2023-06-24T06:16:17;100239.00;;;32.81;45.00
59110;BME280;44895;47.438;18.978;2023-06-24T06:19:21;100256.72;;;31.79;47.24
59110;BME280;44895;47.438;18.978;2023-06-24T06:22:25;100250.41;;;30.27;50.94
59110;BME280;44895;47.438;18.978;2023-06-24T06:25:30;100248.97;;;29.33;54.91
59110;BME280;44895;47.438;18.978;2023-06-24T06:28:34;100257.00;;;29.89;53.23
59110;BME280;44895;47.438;18.978;2023-06-24T06:31:39;100248.09;;;32.07;49.00
59110;BME280;44895;47.438;18.978;2023-06-24T06:34:43;100247.72;;;33.42;44.36
59110;BME280;44895;47.438;18.978;2023-06-24T06:37:46;100252.50;;;33.84;44.35
59110;BME280;44895;47.438;18.978;2023-06-24T06:40:55;100253.13;;;34.40;41.40
59110;BME280;44895;47.438;18.978;2023-06-24T06:43:59;100250.22;;;34.05;42.37
59110;BME280;44895;47.438;18.978;2023-06-24T06:47:04;100254.84;;;33.17;45.64
59110;BME280;44895;47.438;18.978;2023-06-24T06:50:08;100258.50;;;30.45;51.64
59110;BME280;44895;47.438;18.978;2023-06-24T06:53:13;100267.97;;;29.76;56.93
59110;BME280;44895;47.438;18.978;2023-06-24T06:56:26;100261.97;;;28.25;66.25
59110;BME280;44895;47.438;18.978;2023-06-24T06:59:31;100271.34;;;26.90;77.84
59110;BME280;44895;47.438;18.978;2023-06-24T07:02:35;100264.63;;;26.51;85.57
59110;BME280;44895;47.438;18.978;2023-06-24T07:05:39;100275.34;;;26.10;92.94
59110;BME280;44895;47.438;18.978;2023-06-24T07:08:43;100263.00;;;26.65;91.12
59110;BME280;44895;47.438;18.978;2023-06-24T07:11:47;100260.25;;;26.47;88.27
59110;BME280;44895;47.438;18.978;2023-06-24T07:14:51;100263.31;;;25.84;94.90
59110;BME280;44895;47.438;18.978;2023-06-24T07:17:55;100270.03;;;25.58;100.00
59110;BME280;44895;47.438;18.978;2023-06-24T07:21:00;100267.31;;;25.86;100.00
59110;BME280;44895;47.438;18.978;2023-06-24T07:24:05;100268.00;;;25.44;100.00
59110;BME280;44895;47.438;18.978;2023-06-24T07:27:09;100278.81;;;25.78;100.00
59110;BME280;44895;47.438;18.978;2023-06-24T07:30:13;100266.66;;;24.64;100.00
59110;BME280;44895;47.438;18.978;2023-06-24T07:33:17;100280.44;;;25.01;100.00
59110;BME280;44895;47.438;18.978;2023-06-24T07:36:21;100285.75;;;25.32;100.00
59110;BME280;44895;47.438;18.978;2023-06-24T07:39:26;100289.56;;;25.90;100.00
59110;BME280;44895;47.438;18.978;2023-06-24T07:42:30;100290.72;;;27.37;89.67
59110;BME280;44895;47.438;18.978;2023-06-24T07:45:34;100294.06;;;26.45;93.72
59110;BME280;44895;47.438;18.978;2023-06-24T07:48:38;100282.53;;;26.32;98.24
59110;BME280;44895;47.438;18.978;2023-06-24T07:51:42;100290.44;;;26.12;100.00
59110;BME280;44895;47.438;18.978;2023-06-24T07:54:48;100280.06;;;25.95;100.00
59110;BME280;44895;47.438;18.978;2023-06-24T07:57:52;100262.88;;;25.64;100.00
59110;BME280;44895;47.438;18.978;2023-06-24T08:00:56;100293.47;;;25.60;100.00
59110;BME280;44895;47.438;18.978;2023-06-24T08:04:00;100293.47;;;25.67;100.00
59110;BME280;44895;47.438;18.978;2023-06-24T08:07:04;100293.00;;;25.44;100.00
59110;BME280;44895;47.438;18.978;2023-06-24T08:10:08;100293.41;;;25.49;100.00
59110;BME280;44895;47.438;18.978;2023-06-24T08:13:13;100294.06;;;25.21;100.00
59110;BME280;44895;47.438;18.978;2023-06-24T08:16:17;100297.41;;;24.85;100.00
59110;BME280;44895;47.438;18.978;2023-06-24T08:19:23;100296.41;;;24.63;100.00
59110;BME280;44895;47.438;18.978;2023-06-24T08:22:27;100298.44;;;24.66;100.00
59110;BME280;44895;47.438;18.978;2023-06-24T08:25:31;100303.00;;;24.44;100.00
59110;BME280;44895;47.438;18.978;2023-06-24T08:28:35;100295.78;;;24.81;100.00
59110;BME280;44895;47.438;18.978;2023-06-24T08:31:39;100300.69;;;24.53;100.00
59110;BME280;44895;47.438;18.978;2023-06-24T08:34:43;100310.25;;;24.59;100.00
59110;BME280;44895;47.438;18.978;2023-06-24T08:37:47;100312.03;;;24.79;100.00
59110;BME280;44895;47.438;18.978;2023-06-24T08:40:52;100300.88;;;24.75;100.00
59110;BME280;44895;47.438;18.978;2023-06-24T08:43:56;100307.78;;;24.43;100.00
59110;BME280;44895;47.438;18.978;2023-06-24T08:46:59;100313.13;;;24.25;100.00
59110;BME280;44895;47.438;18.978;2023-06-24T08:50:06;100307.50;;;24.15;100.00
59110;BME280;44895;47.438;18.978;2023-06-24T08:53:12;100311.81;;;24.12;100.00
59110;BME280;44895;47.438;18.978;2023-06-24T08:56:18;100316.09;;;23.72;100.00
59110;BME280;44895;47.438;18.978;2023-06-24T08:59:22;100320.19;;;23.82;100.00
59110;BME280;44895;47.438;18.978;2023-06-24T09:02:27;100313.09;;;23.84;100.00
59110;BME280;44895;47.438;18.978;2023-06-24T09:05:32;100313.38;;;23.75;100.00
59110;BME280;44895;47.438;18.978;2023-06-24T09:08:37;100307.75;;;23.68;100.00
59110;BME280;44895;47.438;18.978;2023-06-24T09:11:59;100307.00;;;23.71;100.00
59110;BME280;44895;47.438;18.978;2023-06-24T09:15:04;100307.84;;;23.75;100.00
59110;BME280;44895;47.438;18.978;2023-06-24T09:18:09;100310.66;;;23.83;100.00
59110;BME280;44895;47.438;18.978;2023-06-24T09:21:29;100324.00;;;24.04;100.00
59110;BME280;44895;47.438;18.978;2023-06-24T09:24:36;100321.50;;;23.91;100.00
59110;BME280;44895;47.438;18.978;2023-06-24T09:27:47;100321.22;;;24.41;100.00
59110;BME280;44895;47.438;18.978;2023-06-24T09:31:09;100308.69;;;24.62;100.00
59110;BME280;44895;47.438;18.978;2023-06-24T09:34:13;100311.94;;;24.64;100.00
59110;BME280;44895;47.438;18.978;2023-06-24T09:37:21;100307.03;;;24.50;100.00
59110;BME280;44895;47.438;18.978;2023-06-24T09:40:34;100303.72;;;24.34;100.00
59110;BME280;44895;47.438;18.978;2023-06-24T09:43:38;100314.53;;;24.50;100.00
59110;BME280;44895;47.438;18.978;2023-06-24T09:46:46;100308.78;;;24.69;100.00
59110;BME280;44895;47.438;18.978;2023-06-24T09:49:53;100309.41;;;24.52;100.00
59110;BME280;44895;47.438;18.978;2023-06-24T09:52:57;100312.00;;;24.30;100.00
59110;BME280;44895;47.438;18.978;2023-06-24T09:56:07;100303.69;;;24.79;100.00
59110;BME280;44895;47.438;18.978;2023-06-24T09:59:12;100297.09;;;25.01;100.00
59110;BME280;44895;47.438;18.978;2023-06-24T10:02:17;100285.44;;;25.40;100.00
59110;BME280;44895;47.438;18.978;2023-06-24T10:05:22;100286.53;;;25.25;100.00
59110;BME280;44895;47.438;18.978;2023-06-24T10:08:27;100277.38;;;25.17;100.00
59110;BME280;44895;47.438;18.978;2023-06-24T10:11:32;100286.00;;;25.01;100.00
59110;BME280;44895;47.438;18.978;2023-06-24T10:14:37;100284.41;;;25.04;100.00
59110;BME280;44895;47.438;18.978;2023-06-24T10:17:41;100266.41;;;25.46;100.00
59110;BME280;44895;47.438;18.978;2023-06-24T10:20:48;100271.28;;;25.82;100.00
59110;BME280;44895;47.438;18.978;2023-06-24T10:23:52;100270.81;;;25.62;100.00
59110;BME280;44895;47.438;18.978;2023-06-24T10:27:07;100273.16;;;25.45;100.00
59110;BME280;44895;47.438;18.978;2023-06-24T10:30:18;100262.66;;;25.17;100.00
59110;BME280;44895;47.438;18.978;2023-06-24T10:33:31;100267.16;;;25.39;100.00
59110;BME280;44895;47.438;18.978;2023-06-24T10:36:36;100268.50;;;25.82;100.00
59110;BME280;44895;47.438;18.978;2023-06-24T10:39:53;100267.22;;;25.61;100.00
59110;BME280;44895;47.438;18.978;2023-06-24T10:43:00;100266.84;;;25.66;100.00
59110;BME280;44895;47.438;18.978;2023-06-24T10:46:14;100273.25;;;25.78;100.00
59110;BME280;44895;47.438;18.978;2023-06-24T10:49:20;100265.31;;;25.83;100.00
59110;BME280;44895;47.438;18.978;2023-06-24T10:52:24;100267.28;;;25.76;100.00
59110;BME280;44895;47.438;18.978;2023-06-24T10:55:28;100269.69;;;25.84;100.00
59110;BME280;44895;47.438;18.978;2023-06-24T10:58:33;100272.88;;;25.90;100.00
59110;BME280;44895;47.438;18.978;2023-06-24T11:01:52;100277.22;;;25.80;100.00
59110;BME280;44895;47.438;18.978;2023-06-24T11:05:01;100288.31;;;25.66;100.00
59110;BME280;44895;47.438;18.978;2023-06-24T11:08:06;100278.13;;;26.10;100.00
59110;BME280;44895;47.438;18.978;2023-06-24T11:11:18;100282.91;;;26.34;100.00
59110;BME280;44895;47.438;18.978;2023-06-24T11:14:22;100280.53;;;26.44;100.00
59110;BME280;44895;47.438;18.978;2023-06-24T11:17:27;100280.53;;;26.58;100.00
59110;BME280;44895;47.438;18.978;2023-06-24T11:20:32;100275.75;;;26.66;100.00
59110;BME280;44895;47.438;18.978;2023-06-24T11:23:36;100256.25;;;26.66;100.00
59110;BME280;44895;47.438;18.978;2023-06-24T11:26:41;100261.00;;;26.69;100.00
59110;BME280;44895;47.438;18.978;2023-06-24T11:29:44;100255.88;;;26.78;100.00
59110;BME280;44895;47.438;18.978;2023-06-24T11:32:49;100249.09;;;26.76;100.00
59110;BME280;44895;47.438;18.978;2023-06-24T11:35:54;100248.69;;;26.77;100.00
59110;BME280;44895;47.438;18.978;2023-06-24T11:38:58;100251.06;;;26.93;100.00
59110;BME280;44895;47.438;18.978;2023-06-24T11:42:02;100241.94;;;26.78;100.00
59110;BME280;44895;47.438;18.978;2023-06-24T11:45:10;100225.59;;;26.69;100.00
59110;BME280;44895;47.438;18.978;2023-06-24T11:48:15;100218.84;;;26.85;100.00
59110;BME280;44895;47.438;18.978;2023-06-24T11:51:19;100217.63;;;26.93;100.00
59110;BME280;44895;47.438;18.978;2023-06-24T11:54:23;100215.66;;;26.83;100.00
59110;BME280;44895;47.438;18.978;2023-06-24T11:58:20;100228.78;;;26.72;100.00
59110;BME280;44895;47.438;18.978;2023-06-24T12:01:16;100227.97;;;26.96;100.00
59110;BME280;44895;47.438;18.978;2023-06-24T12:04:21;100207.25;;;27.05;100.00
59110;BME280;44895;47.438;18.978;2023-06-24T12:07:26;100201.97;;;27.25;100.00
59110;BME280;44895;47.438;18.978;2023-06-24T12:10:31;100210.03;;;27.05;100.00
59110;BME280;44895;47.438;18.978;2023-06-24T12:13:38;100216.78;;;27.04;100.00
59110;BME280;44895;47.438;18.978;2023-06-24T12:16:42;100214.84;;;26.93;100.00
59110;BME280;44895;47.438;18.978;2023-06-24T12:19:46;100211.22;;;27.07;100.00
59110;BME280;44895;47.438;18.978;2023-06-24T12:22:50;100211.16;;;27.22;100.00
59110;BME280;44895;47.438;18.978;2023-06-24T12:25:54;100207.72;;;26.74;100.00
59110;BME280;44895;47.438;18.978;2023-06-24T12:28:58;100208.44;;;27.00;100.00
59110;BME280;44895;47.438;18.978;2023-06-24T12:32:03;100195.75;;;26.84;100.00
59110;BME280;44895;47.438;18.978;2023-06-24T12:35:07;100198.56;;;26.77;100.00
59110;BME280;44895;47.438;18.978;2023-06-24T12:38:14;100197.78;;;26.55;100.00
59110;BME280;44895;47.438;18.978;2023-06-24T12:41:19;100194.97;;;26.69;100.00
59110;BME280;44895;47.438;18.978;2023-06-24T12:44:23;100189.78;;;26.82;100.00
59110;BME280;44895;47.438;18.978;2023-06-24T12:47:27;100191.34;;;26.94;100.00
59110;BME280;44895;47.438;18.978;2023-06-24T12:50:31;100183.06;;;26.58;100.00
59110;BME280;44895;47.438;18.978;2023-06-24T12:53:35;100171.53;;;26.52;100.00
59110;BME280;44895;47.438;18.978;2023-06-24T12:56:39;100171.56;;;26.31;100.00
59110;BME280;44895;47.438;18.978;2023-06-24T12:59:43;100179.94;;;26.27;100.00
59110;BME280;44895;47.438;18.978;2023-06-24T13:02:48;100177.53;;;26.44;100.00
59110;BME280;44895;47.438;18.978;2023-06-24T13:05:52;100181.50;;;26.35;100.00
59110;BME280;44895;47.438;18.978;2023-06-24T13:08:57;100185.06;;;26.54;100.00
59110;BME280;44895;47.438;18.978;2023-06-24T13:12:02;100195.38;;;26.79;100.00
59110;BME280;44895;47.438;18.978;2023-06-24T13:15:06;100195.38;;;26.75;100.00
59110;BME280;44895;47.438;18.978;2023-06-24T13:18:10;100206.94;;;26.52;100.00
59110;BME280;44895;47.438;18.978;2023-06-24T13:21:14;100208.13;;;26.47;100.00
59110;BME280;44895;47.438;18.978;2023-06-24T13:24:18;100215.69;;;26.36;100.00
59110;BME280;44895;47.438;18.978;2023-06-24T13:27:22;100202.13;;;26.67;100.00
59110;BME280;44895;47.438;18.978;2023-06-24T13:30:26;100206.94;;;26.52;100.00
59110;BME280;44895;47.438;18.978;2023-06-24T13:33:31;100200.59;;;26.48;100.00
59110;BME280;44895;47.438;18.978;2023-06-24T13:36:37;100191.84;;;26.35;100.00
59110;BME280;44895;47.438;18.978;2023-06-24T13:39:41;100199.78;;;26.47;100.00
59110;BME280;44895;47.438;18.978;2023-06-24T13:42:45;100211.34;;;26.31;100.00
59110;BME280;44895;47.438;18.978;2023-06-24T13:45:51;100209.75;;;26.12;100.00
59110;BME280;44895;47.438;18.978;2023-06-24T13:48:56;100212.53;;;26.30;100.00
59110;BME280;44895;47.438;18.978;2023-06-24T13:52:00;100224.06;;;26.32;100.00
59110;BME280;44895;47.438;18.978;2023-06-24T13:55:05;100212.13;;;26.14;100.00
59110;BME280;44895;47.438;18.978;2023-06-24T13:58:09;100212.50;;;25.87;100.00
59110;BME280;44895;47.438;18.978;2023-06-24T14:01:13;100196.97;;;25.97;100.00
59110;BME280;44895;47.438;18.978;2023-06-24T14:04:17;100191.41;;;25.82;100.00
59110;BME280;44895;47.438;18.978;2023-06-24T14:07:21;100193.00;;;25.94;100.00
59110;BME280;44895;47.438;18.978;2023-06-24T14:10:25;100196.59;;;25.77;100.00
59110;BME280;44895;47.438;18.978;2023-06-24T14:13:29;100202.94;;;25.81;100.00
59110;BME280;44895;47.438;18.978;2023-06-24T14:16:34;100207.63;;;25.55;100.00
59110;BME280;44895;47.438;18.978;2023-06-24T14:19:39;100198.94;;;25.64;100.00
59110;BME280;44895;47.438;18.978;2023-06-24T14:22:43;100198.94;;;25.56;100.00
59110;BME280;44895;47.438;18.978;2023-06-24T14:25:48;100196.16;;;25.71;100.00
59110;BME280;44895;47.438;18.978;2023-06-24T14:28:52;100198.56;;;25.80;100.00
59110;BME280;44895;47.438;18.978;2023-06-24T14:31:56;100190.22;;;25.80;100.00
59110;BME280;44895;47.438;18.978;2023-06-24T14:34:59;100194.19;;;25.86;100.00
59110;BME280;44895;47.438;18.978;2023-06-24T14:38:03;100186.59;;;25.61;100.00
59110;BME280;44895;47.438;18.978;2023-06-24T14:41:07;100186.22;;;25.59;100.00
59110;BME280;44895;47.438;18.978;2023-06-24T14:44:11;100184.19;;;25.45;100.00
59110;BME280;44895;47.438;18.978;2023-06-24T14:47:15;100182.47;;;25.12;100.00
59110;BME280;44895;47.438;18.978;2023-06-24T14:50:19;100178.56;;;25.34;100.00
59110;BME280;44895;47.438;18.978;2023-06-24T14:53:24;100177.03;;;25.40;100.00
59110;BME280;44895;47.438;18.978;2023-06-24T14:56:27;100178.91;;;25.11;100.00
59110;BME280;44895;47.438;18.978;2023-06-24T14:59:32;100180.13;;;25.21;100.00
59110;BME280;44895;47.438;18.978;2023-06-24T15:02:37;100164.69;;;25.34;100.00
59110;BME280;44895;47.438;18.978;2023-06-24T15:05:41;100168.66;;;25.30;100.00
59110;BME280;44895;47.438;18.978;2023-06-24T15:08:45;100160.63;;;25.10;100.00
59110;BME280;44895;47.438;18.978;2023-06-24T15:11:49;100167.00;;;25.14;100.00
59110;BME280;44895;47.438;18.978;2023-06-24T15:14:52;100165.75;;;24.97;100.00
59110;BME280;44895;47.438;18.978;2023-06-24T15:17:57;100158.25;;;25.08;100.00
59110;BME280;44895;47.438;18.978;2023-06-24T15:21:01;100158.66;;;25.18;100.00
59110;BME280;44895;47.438;18.978;2023-06-24T15:24:05;100164.94;;;25.00;100.00
59110;BME280;44895;47.438;18.978;2023-06-24T15:27:09;100154.22;;;24.88;100.00
59110;BME280;44895;47.438;18.978;2023-06-24T15:30:13;100157.34;;;24.86;100.00
59110;BME280;44895;47.438;18.978;2023-06-24T15:33:17;100157.84;;;25.10;100.00
59110;BME280;44895;47.438;18.978;2023-06-24T15:36:21;100154.25;;;24.99;100.00
59110;BME280;44895;47.438;18.978;2023-06-24T15:39:26;100155.09;;;25.14;100.00
59110;BME280;44895;47.438;18.978;2023-06-24T15:42:30;100162.16;;;24.89;100.00
59110;BME280;44895;47.438;18.978;2023-06-24T15:45:34;100156.53;;;24.79;100.00
59110;BME280;44895;47.438;18.978;2023-06-24T15:48:39;100150.25;;;24.92;100.00
59110;BME280;44895;47.438;18.978;2023-06-24T15:51:43;100148.34;;;25.11;100.00
59110;BME280;44895;47.438;18.978;2023-06-24T15:54:47;100136.44;;;25.18;100.00